sensor_id;sensor_type;location;lat;lon;timestamp;P1;durP1;ratioP1;P2;durP2;ratioP2
3415;SDS011;1721;51.238;9.562;2024-03-02T00:02:18;15.23;;;5.80;;
3415;SDS011;1721;51.238;9.562;2024-03-02T00:04:44;16.63;;;5.70;;
3415;SDS011;1721;51.238;9.562;2024-03-02T00:07:10;15.18;;;6.70;;
3415;SDS011;1721;51.238;9.562;2024-03-02T00:09:39;12.32;;;5.45;;
3415;SDS011;1721;51.238;9.562;2024-03-02T00:12:05;16.70;;;6.37;;
3415;SDS011;1721;51.238;9.562;2024-03-02T00:14:31;11.52;;;5.35;;
3415;SDS011;1721;51.238;9.562;2024-03-02T00:16:57;21.80;;;6.27;;
3415;SDS011;1721;51.238;9.562;2024-03-02T00:19:22;16.07;;;6.07;;
3415;SDS011;1721;51.238;9.562;2024-03-02T00:21:48;13.60;;;5.30;;
3415;SDS011;1721;51.238;9.562;2024-03-02T00:24:21;12.95;;;5.35;;
3415;SDS011;1721;51.238;9.562;2024-03-02T00:26:56;12.95;;;5.70;;
3415;SDS011;1721;51.238;9.562;2024-03-02T00:29:22;20.00;;;7.37;;
3415;SDS011;1721;51.238;9.562;2024-03-02T00:31:47;10.87;;;4.93;;
3415;SDS011;1721;51.238;9.562;2024-03-02T00:34:13;18.17;;;5.83;;
3415;SDS011;1721;51.238;9.562;2024-03-02T00:36:41;13.15;;;5.10;;
3415;SDS011;1721;51.238;9.562;2024-03-02T00:39:07;12.27;;;5.40;;
3415;SDS011;1721;51.238;9.562;2024-03-02T00:41:32;13.77;;;5.60;;
3415;SDS011;1721;51.238;9.562;2024-03-02T00:46:26;10.85;;;4.65;;
3415;SDS011;1721;51.238;9.562;2024-03-02T00:48:56;15.10;;;6.10;;
3415;SDS011;1721;51.238;9.562;2024-03-02T00:51:23;14.00;;;5.60;;
3415;SDS011;1721;51.238;9.562;2024-03-02T00:53:51;14.05;;;4.93;;
3415;SDS011;1721;51.238;9.562;2024-03-02T00:56:17;16.88;;;6.22;;
3415;SDS011;1721;51.238;9.562;2024-03-02T00:58:43;20.23;;;6.10;;
3415;SDS011;1721;51.238;9.562;2024-03-02T01:01:09;14.47;;;5.30;;
3415;SDS011;1721;51.238;9.562;2024-03-02T01:03:35;8.33;;;3.93;;
3415;SDS011;1721;51.238;9.562;2024-03-02T01:06:02;14.57;;;5.25;;
3415;SDS011;1721;51.238;9.562;2024-03-02T01:08:28;15.47;;;5.47;;
3415;SDS011;1721;51.238;9.562;2024-03-02T01:10:53;13.70;;;5.43;;
3415;SDS011;1721;51.238;9.562;2024-03-02T01:13:19;15.90;;;5.95;;
3415;SDS011;1721;51.238;9.562;2024-03-02T01:15:46;16.35;;;6.85;;
3415;SDS011;1721;51.238;9.562;2024-03-02T01:18:11;14.40;;;6.03;;
3415;SDS011;1721;51.238;9.562;2024-03-02T01:20:37;12.10;;;5.97;;
3415;SDS011;1721;51.238;9.562;2024-03-02T01:23:03;14.63;;;5.17;;
3415;SDS011;1721;51.238;9.562;2024-03-02T01:25:28;15.37;;;6.00;;
3415;SDS011;1721;51.238;9.562;2024-03-02T01:27:54;15.50;;;5.93;;
3415;SDS011;1721;51.238;9.562;2024-03-02T01:30:19;12.60;;;5.33;;
3415;SDS011;1721;51.238;9.562;2024-03-02T01:32:46;12.82;;;5.53;;
3415;SDS011;1721;51.238;9.562;2024-03-02T01:35:12;15.87;;;5.50;;
3415;SDS011;1721;51.238;9.562;2024-03-02T01:37:37;19.63;;;6.17;;
3415;SDS011;1721;51.238;9.562;2024-03-02T01:40:03;12.77;;;4.80;;
3415;SDS011;1721;51.238;9.562;2024-03-02T01:42:34;15.70;;;6.53;;
3415;SDS011;1721;51.238;9.562;2024-03-02T01:45:04;14.13;;;7.13;;
3415;SDS011;1721;51.238;9.562;2024-03-02T01:47:30;16.58;;;6.05;;
3415;SDS011;1721;51.238;9.562;2024-03-02T01:49:57;17.20;;;6.95;;
3415;SDS011;1721;51.238;9.562;2024-03-02T01:52:23;16.10;;;6.50;;
3415;SDS011;1721;51.238;9.562;2024-03-02T01:54:49;17.27;;;7.10;;
3415;SDS011;1721;51.238;9.562;2024-03-02T01:57:14;18.23;;;6.03;;
3415;SDS011;1721;51.238;9.562;2024-03-02T01:59:40;14.00;;;6.73;;
3415;SDS011;1721;51.238;9.562;2024-03-02T02:02:06;17.83;;;6.50;;
3415;SDS011;1721;51.238;9.562;2024-03-02T02:04:32;18.10;;;6.25;;
3415;SDS011;1721;51.238;9.562;2024-03-02T02:06:58;20.53;;;6.73;;
3415;SDS011;1721;51.238;9.562;2024-03-02T02:09:24;18.75;;;7.30;;
3415;SDS011;1721;51.238;9.562;2024-03-02T02:11:50;17.03;;;5.70;;
3415;SDS011;1721;51.238;9.562;2024-03-02T02:14:16;15.35;;;6.85;;
3415;SDS011;1721;51.238;9.562;2024-03-02T02:16:42;16.50;;;6.87;;
3415;SDS011;1721;51.238;9.562;2024-03-02T02:19:07;22.13;;;7.43;;
3415;SDS011;1721;51.238;9.562;2024-03-02T02:21:34;18.95;;;7.68;;
3415;SDS011;1721;51.238;9.562;2024-03-02T02:24:00;18.17;;;7.20;;
3415;SDS011;1721;51.238;9.562;2024-03-02T02:26:27;18.40;;;6.93;;
3415;SDS011;1721;51.238;9.562;2024-03-02T02:28:54;19.07;;;7.17;;
3415;SDS011;1721;51.238;9.562;2024-03-02T02:31:19;19.10;;;7.10;;
3415;SDS011;1721;51.238;9.562;2024-03-02T02:33:45;12.87;;;7.30;;
3415;SDS011;1721;51.238;9.562;2024-03-02T02:36:10;21.93;;;7.43;;
3415;SDS011;1721;51.238;9.562;2024-03-02T02:38:38;14.43;;;6.00;;
3415;SDS011;1721;51.238;9.562;2024-03-02T02:41:07;19.92;;;6.97;;
3415;SDS011;1721;51.238;9.562;2024-03-02T02:43:33;13.57;;;6.07;;
3415;SDS011;1721;51.238;9.562;2024-03-02T02:45:58;12.37;;;6.07;;
3415;SDS011;1721;51.238;9.562;2024-03-02T02:48:24;17.53;;;7.00;;
3415;SDS011;1721;51.238;9.562;2024-03-02T02:50:50;24.38;;;8.13;;
3415;SDS011;1721;51.238;9.562;2024-03-02T02:53:16;14.53;;;5.50;;
3415;SDS011;1721;51.238;9.562;2024-03-02T02:55:41;15.30;;;5.90;;
3415;SDS011;1721;51.238;9.562;2024-03-02T02:58:08;16.50;;;7.18;;
3415;SDS011;1721;51.238;9.562;2024-03-02T03:00:34;19.63;;;6.20;;
3415;SDS011;1721;51.238;9.562;2024-03-02T03:03:00;13.40;;;6.38;;
3415;SDS011;1721;51.238;9.562;2024-03-02T03:05:26;26.37;;;6.60;;
3415;SDS011;1721;51.238;9.562;2024-03-02T03:07:51;25.63;;;7.33;;
3415;SDS011;1721;51.238;9.562;2024-03-02T03:10:17;17.77;;;7.80;;
3415;SDS011;1721;51.238;9.562;2024-03-02T03:12:43;20.25;;;8.52;;
3415;SDS011;1721;51.238;9.562;2024-03-02T03:15:09;18.30;;;7.97;;
3415;SDS011;1721;51.238;9.562;2024-03-02T03:17:36;16.38;;;6.30;;
3415;SDS011;1721;51.238;9.562;2024-03-02T03:20:02;21.50;;;9.05;;
3415;SDS011;1721;51.238;9.562;2024-03-02T03:22:29;12.52;;;6.20;;
3415;SDS011;1721;51.238;9.562;2024-03-02T03:24:56;21.60;;;7.70;;
3415;SDS011;1721;51.238;9.562;2024-03-02T03:27:22;13.90;;;6.87;;
3415;SDS011;1721;51.238;9.562;2024-03-02T03:29:47;15.30;;;7.30;;
3415;SDS011;1721;51.238;9.562;2024-03-02T03:32:13;15.07;;;6.63;;
3415;SDS011;1721;51.238;9.562;2024-03-02T03:34:39;18.00;;;6.43;;
3415;SDS011;1721;51.238;9.562;2024-03-02T03:37:05;18.35;;;6.75;;
3415;SDS011;1721;51.238;9.562;2024-03-02T03:39:30;18.00;;;6.80;;
3415;SDS011;1721;51.238;9.562;2024-03-02T03:41:56;15.00;;;6.37;;
3415;SDS011;1721;51.238;9.562;2024-03-02T03:44:28;16.07;;;7.00;;
3415;SDS011;1721;51.238;9.562;2024-03-02T03:46:53;20.42;;;8.23;;
3415;SDS011;1721;51.238;9.562;2024-03-02T03:49:19;20.57;;;7.23;;
3415;SDS011;1721;51.238;9.562;2024-03-02T03:51:50;14.93;;;7.37;;
3415;SDS011;1721;51.238;9.562;2024-03-02T03:54:19;21.95;;;8.30;;
3415;SDS011;1721;51.238;9.562;2024-03-02T03:56:44;19.47;;;6.73;;
3415;SDS011;1721;51.238;9.562;2024-03-02T03:59:10;13.97;;;6.13;;
3415;SDS011;1721;51.238;9.562;2024-03-02T04:01:36;19.10;;;5.90;;
3415;SDS011;1721;51.238;9.562;2024-03-02T04:04:02;14.88;;;6.35;;
3415;SDS011;1721;51.238;9.562;2024-03-02T04:06:28;24.45;;;7.10;;
3415;SDS011;1721;51.238;9.562;2024-03-02T04:08:54;14.05;;;6.93;;
3415;SDS011;1721;51.238;9.562;2024-03-02T04:11:20;19.43;;;8.27;;
3415;SDS011;1721;51.238;9.562;2024-03-02T04:13:45;19.53;;;7.93;;
3415;SDS011;1721;51.238;9.562;2024-03-02T04:16:11;19.47;;;7.20;;
3415;SDS011;1721;51.238;9.562;2024-03-02T04:18:37;17.63;;;6.73;;
3415;SDS011;1721;51.238;9.562;2024-03-02T04:21:03;16.65;;;7.30;;
3415;SDS011;1721;51.238;9.562;2024-03-02T04:23:28;17.50;;;7.23;;
3415;SDS011;1721;51.238;9.562;2024-03-02T04:25:54;18.80;;;7.40;;
3415;SDS011;1721;51.238;9.562;2024-03-02T04:28:19;21.87;;;7.30;;
3415;SDS011;1721;51.238;9.562;2024-03-02T04:30:45;21.93;;;6.00;;
3415;SDS011;1721;51.238;9.562;2024-03-02T04:33:11;15.23;;;6.97;;
3415;SDS011;1721;51.238;9.562;2024-03-02T04:35:36;15.83;;;6.30;;
3415;SDS011;1721;51.238;9.562;2024-03-02T04:38:02;18.00;;;7.37;;
3415;SDS011;1721;51.238;9.562;2024-03-02T04:40:28;15.80;;;6.63;;
3415;SDS011;1721;51.238;9.562;2024-03-02T04:42:53;18.40;;;6.30;;
3415;SDS011;1721;51.238;9.562;2024-03-02T04:45:19;21.73;;;7.37;;
3415;SDS011;1721;51.238;9.562;2024-03-02T04:47:44;19.80;;;6.80;;
3415;SDS011;1721;51.238;9.562;2024-03-02T04:50:10;16.30;;;6.83;;
3415;SDS011;1721;51.238;9.562;2024-03-02T04:52:35;20.97;;;6.47;;
3415;SDS011;1721;51.238;9.562;2024-03-02T04:55:01;15.83;;;5.87;;
3415;SDS011;1721;51.238;9.562;2024-03-02T04:57:46;14.52;;;5.57;;
3415;SDS011;1721;51.238;9.562;2024-03-02T05:00:12;18.33;;;7.18;;
3415;SDS011;1721;51.238;9.562;2024-03-02T05:02:38;18.42;;;6.32;;
3415;SDS011;1721;51.238;9.562;2024-03-02T05:05:04;17.97;;;6.30;;
3415;SDS011;1721;51.238;9.562;2024-03-02T05:07:29;20.47;;;7.00;;
3415;SDS011;1721;51.238;9.562;2024-03-02T05:09:55;17.67;;;8.13;;
3415;SDS011;1721;51.238;9.562;2024-03-02T05:12:20;14.73;;;7.17;;
3415;SDS011;1721;51.238;9.562;2024-03-02T05:15:05;18.98;;;7.00;;
3415;SDS011;1721;51.238;9.562;2024-03-02T05:17:32;18.17;;;7.53;;
3415;SDS011;1721;51.238;9.562;2024-03-02T05:19:58;18.50;;;6.97;;
3415;SDS011;1721;51.238;9.562;2024-03-02T05:22:23;16.33;;;6.50;;
3415;SDS011;1721;51.238;9.562;2024-03-02T05:24:49;17.73;;;5.87;;
3415;SDS011;1721;51.238;9.562;2024-03-02T05:27:14;13.83;;;4.97;;
3415;SDS011;1721;51.238;9.562;2024-03-02T05:29:40;14.10;;;5.37;;
3415;SDS011;1721;51.238;9.562;2024-03-02T05:32:06;15.10;;;6.67;;
3415;SDS011;1721;51.238;9.562;2024-03-02T05:34:31;16.93;;;6.07;;
3415;SDS011;1721;51.238;9.562;2024-03-02T05:36:59;20.80;;;6.95;;
3415;SDS011;1721;51.238;9.562;2024-03-02T05:39:25;18.43;;;6.90;;
3415;SDS011;1721;51.238;9.562;2024-03-02T05:41:50;18.97;;;6.43;;
3415;SDS011;1721;51.238;9.562;2024-03-02T05:44:16;14.83;;;5.10;;
3415;SDS011;1721;51.238;9.562;2024-03-02T05:46:43;14.23;;;6.25;;
3415;SDS011;1721;51.238;9.562;2024-03-02T05:49:09;16.60;;;6.43;;
3415;SDS011;1721;51.238;9.562;2024-03-02T05:51:35;15.97;;;4.83;;
3415;SDS011;1721;51.238;9.562;2024-03-02T05:54:00;15.07;;;5.77;;
3415;SDS011;1721;51.238;9.562;2024-03-02T05:56:26;18.93;;;7.00;;
3415;SDS011;1721;51.238;9.562;2024-03-02T05:58:52;19.73;;;5.60;;
3415;SDS011;1721;51.238;9.562;2024-03-02T06:01:33;27.70;;;6.82;;
3415;SDS011;1721;51.238;9.562;2024-03-02T06:03:58;14.70;;;6.33;;
3415;SDS011;1721;51.238;9.562;2024-03-02T06:06:24;16.13;;;5.80;;
3415;SDS011;1721;51.238;9.562;2024-03-02T06:08:50;18.03;;;7.10;;
3415;SDS011;1721;51.238;9.562;2024-03-02T06:11:16;17.20;;;4.90;;
3415;SDS011;1721;51.238;9.562;2024-03-02T06:13:42;16.85;;;6.50;;
3415;SDS011;1721;51.238;9.562;2024-03-02T06:16:08;14.57;;;6.20;;
3415;SDS011;1721;51.238;9.562;2024-03-02T06:18:33;15.83;;;4.97;;
3415;SDS011;1721;51.238;9.562;2024-03-02T06:20:59;14.23;;;5.73;;
3415;SDS011;1721;51.238;9.562;2024-03-02T06:23:26;13.95;;;6.45;;
3415;SDS011;1721;51.238;9.562;2024-03-02T06:25:52;16.43;;;6.93;;
3415;SDS011;1721;51.238;9.562;2024-03-02T06:28:17;14.27;;;6.37;;
3415;SDS011;1721;51.238;9.562;2024-03-02T06:30:43;17.07;;;6.53;;
3415;SDS011;1721;51.238;9.562;2024-03-02T06:33:10;17.50;;;5.88;;
3415;SDS011;1721;51.238;9.562;2024-03-02T06:35:35;19.10;;;7.33;;
3415;SDS011;1721;51.238;9.562;2024-03-02T06:38:01;13.40;;;5.57;;
3415;SDS011;1721;51.238;9.562;2024-03-02T06:40:27;14.80;;;6.40;;
3415;SDS011;1721;51.238;9.562;2024-03-02T06:42:52;15.87;;;6.30;;
3415;SDS011;1721;51.238;9.562;2024-03-02T06:45:18;13.87;;;4.90;;
3415;SDS011;1721;51.238;9.562;2024-03-02T06:47:43;13.70;;;5.07;;
3415;SDS011;1721;51.238;9.562;2024-03-02T06:50:09;19.50;;;6.77;;
3415;SDS011;1721;51.238;9.562;2024-03-02T06:52:35;14.57;;;5.70;;
3415;SDS011;1721;51.238;9.562;2024-03-02T06:55:01;20.13;;;7.28;;
3415;SDS011;1721;51.238;9.562;2024-03-02T06:57:27;13.07;;;6.17;;
3415;SDS011;1721;51.238;9.562;2024-03-02T06:59:52;13.13;;;5.40;;
3415;SDS011;1721;51.238;9.562;2024-03-02T07:02:22;16.35;;;6.22;;
3415;SDS011;1721;51.238;9.562;2024-03-02T07:04:48;18.70;;;6.40;;
3415;SDS011;1721;51.238;9.562;2024-03-02T07:07:13;9.57;;;4.87;;
3415;SDS011;1721;51.238;9.562;2024-03-02T07:09:39;14.10;;;5.53;;
3415;SDS011;1721;51.238;9.562;2024-03-02T07:12:05;15.33;;;5.80;;
3415;SDS011;1721;51.238;9.562;2024-03-02T07:14:30;19.73;;;6.00;;
3415;SDS011;1721;51.238;9.562;2024-03-02T07:17:15;11.85;;;5.43;;
3415;SDS011;1721;51.238;9.562;2024-03-02T07:19:40;19.23;;;5.90;;
3415;SDS011;1721;51.238;9.562;2024-03-02T07:22:06;13.80;;;6.03;;
3415;SDS011;1721;51.238;9.562;2024-03-02T07:24:38;11.68;;;5.18;;
3415;SDS011;1721;51.238;9.562;2024-03-02T07:27:08;10.13;;;4.80;;
3415;SDS011;1721;51.238;9.562;2024-03-02T07:29:34;12.48;;;5.13;;
3415;SDS011;1721;51.238;9.562;2024-03-02T07:31:59;11.57;;;5.07;;
3415;SDS011;1721;51.238;9.562;2024-03-02T07:34:25;14.43;;;4.43;;
3415;SDS011;1721;51.238;9.562;2024-03-02T07:36:50;11.20;;;4.53;;
3415;SDS011;1721;51.238;9.562;2024-03-02T07:39:16;11.90;;;5.10;;
3415;SDS011;1721;51.238;9.562;2024-03-02T07:41:42;13.07;;;4.80;;
3415;SDS011;1721;51.238;9.562;2024-03-02T07:44:07;12.27;;;5.10;;
3415;SDS011;1721;51.238;9.562;2024-03-02T07:46:33;15.43;;;4.17;;
3415;SDS011;1721;51.238;9.562;2024-03-02T07:48:58;13.07;;;4.80;;
3415;SDS011;1721;51.238;9.562;2024-03-02T07:51:24;10.43;;;4.33;;
3415;SDS011;1721;51.238;9.562;2024-03-02T07:53:50;11.73;;;4.67;;
3415;SDS011;1721;51.238;9.562;2024-03-02T07:56:15;11.73;;;5.00;;
3415;SDS011;1721;51.238;9.562;2024-03-02T07:58:47;10.27;;;4.45;;
3415;SDS011;1721;51.238;9.562;2024-03-02T08:01:14;9.57;;;4.32;;
3415;SDS011;1721;51.238;9.562;2024-03-02T08:03:39;11.13;;;4.90;;
3415;SDS011;1721;51.238;9.562;2024-03-02T08:06:05;9.37;;;3.60;;
3415;SDS011;1721;51.238;9.562;2024-03-02T08:08:31;11.37;;;4.03;;
3415;SDS011;1721;51.238;9.562;2024-03-02T08:10:57;13.67;;;4.00;;
3415;SDS011;1721;51.238;9.562;2024-03-02T08:13:22;12.30;;;3.90;;
3415;SDS011;1721;51.238;9.562;2024-03-02T08:15:48;15.23;;;4.83;;
3415;SDS011;1721;51.238;9.562;2024-03-02T08:18:13;10.37;;;4.97;;
3415;SDS011;1721;51.238;9.562;2024-03-02T08:20:39;10.87;;;3.57;;
3415;SDS011;1721;51.238;9.562;2024-03-02T08:23:05;9.15;;;3.42;;
3415;SDS011;1721;51.238;9.562;2024-03-02T08:25:31;8.97;;;3.60;;
3415;SDS011;1721;51.238;9.562;2024-03-02T08:27:57;6.70;;;3.17;;
3415;SDS011;1721;51.238;9.562;2024-03-02T08:30:23;7.50;;;3.17;;
3415;SDS011;1721;51.238;9.562;2024-03-02T08:32:48;11.77;;;4.33;;
3415;SDS011;1721;51.238;9.562;2024-03-02T08:35:14;10.13;;;4.30;;
3415;SDS011;1721;51.238;9.562;2024-03-02T08:37:40;10.43;;;3.53;;
3415;SDS011;1721;51.238;9.562;2024-03-02T08:40:07;9.02;;;3.88;;
3415;SDS011;1721;51.238;9.562;2024-03-02T08:42:33;11.75;;;4.22;;
3415;SDS011;1721;51.238;9.562;2024-03-02T08:44:59;9.30;;;3.23;;
3415;SDS011;1721;51.238;9.562;2024-03-02T08:47:26;8.90;;;4.13;;
3415;SDS011;1721;51.238;9.562;2024-03-02T08:49:52;10.10;;;3.42;;
3415;SDS011;1721;51.238;9.562;2024-03-02T08:52:18;9.10;;;3.73;;
3415;SDS011;1721;51.238;9.562;2024-03-02T08:54:43;7.93;;;3.53;;
3415;SDS011;1721;51.238;9.562;2024-03-02T08:57:09;12.50;;;3.63;;
3415;SDS011;1721;51.238;9.562;2024-03-02T08:59:35;7.20;;;3.50;;
3415;SDS011;1721;51.238;9.562;2024-03-02T09:02:00;8.03;;;3.33;;
3415;SDS011;1721;51.238;9.562;2024-03-02T09:04:26;7.33;;;3.00;;
3415;SDS011;1721;51.238;9.562;2024-03-02T09:06:52;9.95;;;3.30;;
3415;SDS011;1721;51.238;9.562;2024-03-02T09:09:18;8.90;;;3.27;;
3415;SDS011;1721;51.238;9.562;2024-03-02T09:11:43;7.13;;;3.10;;
3415;SDS011;1721;51.238;9.562;2024-03-02T09:14:11;7.35;;;2.70;;
3415;SDS011;1721;51.238;9.562;2024-03-02T09:16:37;8.20;;;3.60;;
3415;SDS011;1721;51.238;9.562;2024-03-02T09:19:03;9.10;;;3.00;;
3415;SDS011;1721;51.238;9.562;2024-03-02T09:21:28;11.50;;;3.87;;
3415;SDS011;1721;51.238;9.562;2024-03-02T09:23:55;7.70;;;3.35;;
3415;SDS011;1721;51.238;9.562;2024-03-02T09:26:21;10.05;;;3.50;;
3415;SDS011;1721;51.238;9.562;2024-03-02T09:28:47;12.67;;;3.60;;
3415;SDS011;1721;51.238;9.562;2024-03-02T09:31:13;7.53;;;3.43;;
3415;SDS011;1721;51.238;9.562;2024-03-02T09:33:38;8.17;;;2.90;;
3415;SDS011;1721;51.238;9.562;2024-03-02T09:36:04;9.87;;;3.37;;
3415;SDS011;1721;51.238;9.562;2024-03-02T09:38:32;8.93;;;2.63;;
3415;SDS011;1721;51.238;9.562;2024-03-02T09:40:59;8.60;;;2.75;;
3415;SDS011;1721;51.238;9.562;2024-03-02T09:43:26;10.63;;;2.83;;
3415;SDS011;1721;51.238;9.562;2024-03-02T09:45:51;6.50;;;2.60;;
3415;SDS011;1721;51.238;9.562;2024-03-02T09:48:18;7.10;;;3.20;;
3415;SDS011;1721;51.238;9.562;2024-03-02T09:50:45;13.57;;;3.80;;
3415;SDS011;1721;51.238;9.562;2024-03-02T09:53:11;11.20;;;3.05;;
3415;SDS011;1721;51.238;9.562;2024-03-02T09:55:37;14.70;;;3.53;;
3415;SDS011;1721;51.238;9.562;2024-03-02T09:58:04;9.65;;;3.30;;
3415;SDS011;1721;51.238;9.562;2024-03-02T10:00:30;6.03;;;2.57;;
3415;SDS011;1721;51.238;9.562;2024-03-02T10:02:56;7.27;;;3.80;;
3415;SDS011;1721;51.238;9.562;2024-03-02T10:05:26;6.97;;;2.88;;
3415;SDS011;1721;51.238;9.562;2024-03-02T10:08:02;7.88;;;3.30;;
3415;SDS011;1721;51.238;9.562;2024-03-02T10:10:37;6.85;;;3.30;;
3415;SDS011;1721;51.238;9.562;2024-03-02T10:13:11;9.82;;;3.50;;
3415;SDS011;1721;51.238;9.562;2024-03-02T10:15:38;8.68;;;2.90;;
3415;SDS011;1721;51.238;9.562;2024-03-02T10:18:11;8.98;;;4.15;;
3415;SDS011;1721;51.238;9.562;2024-03-02T10:20:38;8.32;;;3.45;;
3415;SDS011;1721;51.238;9.562;2024-03-02T10:23:10;5.95;;;2.72;;
3415;SDS011;1721;51.238;9.562;2024-03-02T10:25:40;8.48;;;2.90;;
3415;SDS011;1721;51.238;9.562;2024-03-02T10:28:06;11.20;;;3.83;;
3415;SDS011;1721;51.238;9.562;2024-03-02T10:30:32;6.33;;;2.67;;
3415;SDS011;1721;51.238;9.562;2024-03-02T10:32:58;9.73;;;3.25;;
3415;SDS011;1721;51.238;9.562;2024-03-02T10:35:28;9.60;;;4.10;;
3415;SDS011;1721;51.238;9.562;2024-03-02T10:37:56;12.20;;;3.25;;
3415;SDS011;1721;51.238;9.562;2024-03-02T10:40:23;13.40;;;3.30;;
3415;SDS011;1721;51.238;9.562;2024-03-02T10:42:52;8.27;;;2.88;;
3415;SDS011;1721;51.238;9.562;2024-03-02T10:45:19;5.20;;;2.30;;
3415;SDS011;1721;51.238;9.562;2024-03-02T10:47:46;6.78;;;2.28;;
3415;SDS011;1721;51.238;9.562;2024-03-02T10:50:12;7.30;;;3.28;;
3415;SDS011;1721;51.238;9.562;2024-03-02T10:52:38;5.83;;;2.40;;
3415;SDS011;1721;51.238;9.562;2024-03-02T10:55:05;6.47;;;2.63;;
3415;SDS011;1721;51.238;9.562;2024-03-02T10:57:41;18.15;;;3.15;;
3415;SDS011;1721;51.238;9.562;2024-03-02T11:00:11;7.43;;;2.92;;
3415;SDS011;1721;51.238;9.562;2024-03-02T11:02:41;7.47;;;2.05;;
3415;SDS011;1721;51.238;9.562;2024-03-02T11:05:11;5.75;;;2.47;;
3415;SDS011;1721;51.238;9.562;2024-03-02T11:07:39;5.35;;;2.25;;
3415;SDS011;1721;51.238;9.562;2024-03-02T11:10:06;5.80;;;2.08;;
3415;SDS011;1721;51.238;9.562;2024-03-02T11:12:44;4.80;;;1.98;;
3415;SDS011;1721;51.238;9.562;2024-03-02T11:15:22;9.63;;;1.70;;
3415;SDS011;1721;51.238;9.562;2024-03-02T11:17:51;5.53;;;1.85;;
3415;SDS011;1721;51.238;9.562;2024-03-02T11:20:18;5.10;;;1.90;;
3415;SDS011;1721;51.238;9.562;2024-03-02T11:22:45;5.55;;;1.60;;
3415;SDS011;1721;51.238;9.562;2024-03-02T11:25:26;4.00;;;1.70;;
3415;SDS011;1721;51.238;9.562;2024-03-02T11:32:59;6.75;;;1.90;;
3415;SDS011;1721;51.238;9.562;2024-03-02T11:35:26;7.32;;;2.15;;
3415;SDS011;1721;51.238;9.562;2024-03-02T11:37:55;7.70;;;2.08;;
3415;SDS011;1721;51.238;9.562;2024-03-02T11:40:26;5.60;;;2.13;;
3415;SDS011;1721;51.238;9.562;2024-03-02T11:42:53;5.05;;;2.20;;
3415;SDS011;1721;51.238;9.562;2024-03-02T11:45:28;7.50;;;2.30;;
3415;SDS011;1721;51.238;9.562;2024-03-02T11:47:55;5.40;;;2.60;;
3415;SDS011;1721;51.238;9.562;2024-03-02T11:50:34;4.07;;;1.60;;
3415;SDS011;1721;51.238;9.562;2024-03-02T11:53:02;5.68;;;1.80;;
3415;SDS011;1721;51.238;9.562;2024-03-02T11:55:38;3.92;;;1.67;;
3415;SDS011;1721;51.238;9.562;2024-03-02T11:58:09;5.55;;;2.00;;
3415;SDS011;1721;51.238;9.562;2024-03-02T12:00:34;6.97;;;2.10;;
3415;SDS011;1721;51.238;9.562;2024-03-02T12:03:07;6.50;;;2.50;;
3415;SDS011;1721;51.238;9.562;2024-03-02T12:05:34;4.82;;;1.80;;
3415;SDS011;1721;51.238;9.562;2024-03-02T12:08:02;5.40;;;2.40;;
3415;SDS011;1721;51.238;9.562;2024-03-02T12:10:29;6.32;;;2.05;;
3415;SDS011;1721;51.238;9.562;2024-03-02T12:13:05;5.30;;;1.60;;
3415;SDS011;1721;51.238;9.562;2024-03-02T12:15:36;6.05;;;2.05;;
3415;SDS011;1721;51.238;9.562;2024-03-02T12:18:03;3.72;;;1.30;;
3415;SDS011;1721;51.238;9.562;2024-03-02T12:20:30;3.80;;;1.50;;
3415;SDS011;1721;51.238;9.562;2024-03-02T12:22:59;11.20;;;2.13;;
3415;SDS011;1721;51.238;9.562;2024-03-02T12:25:27;6.82;;;1.75;;
3415;SDS011;1721;51.238;9.562;2024-03-02T12:27:54;5.53;;;1.70;;
3415;SDS011;1721;51.238;9.562;2024-03-02T12:30:21;5.85;;;1.85;;
3415;SDS011;1721;51.238;9.562;2024-03-02T12:32:47;4.03;;;1.60;;
3415;SDS011;1721;51.238;9.562;2024-03-02T12:35:14;4.03;;;1.75;;
3415;SDS011;1721;51.238;9.562;2024-03-02T12:37:47;5.95;;;2.00;;
3415;SDS011;1721;51.238;9.562;2024-03-02T12:40:13;4.60;;;1.85;;
3415;SDS011;1721;51.238;9.562;2024-03-02T12:42:39;4.68;;;1.27;;
3415;SDS011;1721;51.238;9.562;2024-03-02T12:45:06;6.25;;;1.80;;
3415;SDS011;1721;51.238;9.562;2024-03-02T12:47:36;3.50;;;1.17;;
3415;SDS011;1721;51.238;9.562;2024-03-02T12:50:03;4.85;;;1.90;;
3415;SDS011;1721;51.238;9.562;2024-03-02T12:52:29;3.78;;;1.50;;
3415;SDS011;1721;51.238;9.562;2024-03-02T12:54:55;4.83;;;1.70;;
3415;SDS011;1721;51.238;9.562;2024-03-02T12:57:27;4.72;;;1.38;;
3415;SDS011;1721;51.238;9.562;2024-03-02T12:59:57;3.17;;;1.15;;
3415;SDS011;1721;51.238;9.562;2024-03-02T13:02:27;3.50;;;1.23;;
3415;SDS011;1721;51.238;9.562;2024-03-02T13:04:54;5.05;;;1.67;;
3415;SDS011;1721;51.238;9.562;2024-03-02T13:07:20;4.55;;;1.45;;
3415;SDS011;1721;51.238;9.562;2024-03-02T13:09:49;3.75;;;1.15;;
3415;SDS011;1721;51.238;9.562;2024-03-02T13:12:16;3.57;;;1.10;;
3415;SDS011;1721;51.238;9.562;2024-03-02T13:14:42;3.78;;;1.10;;
3415;SDS011;1721;51.238;9.562;2024-03-02T13:17:08;4.60;;;1.03;;
3415;SDS011;1721;51.238;9.562;2024-03-02T13:19:34;4.78;;;1.10;;
3415;SDS011;1721;51.238;9.562;2024-03-02T13:22:00;3.90;;;1.00;;
3415;SDS011;1721;51.238;9.562;2024-03-02T13:24:28;3.53;;;1.10;;
3415;SDS011;1721;51.238;9.562;2024-03-02T13:26:54;3.10;;;0.80;;
3415;SDS011;1721;51.238;9.562;2024-03-02T13:29:22;3.92;;;1.00;;
3415;SDS011;1721;51.238;9.562;2024-03-02T13:31:48;3.00;;;1.07;;
3415;SDS011;1721;51.238;9.562;2024-03-02T13:34:14;4.10;;;1.00;;
3415;SDS011;1721;51.238;9.562;2024-03-02T13:36:40;4.47;;;1.27;;
3415;SDS011;1721;51.238;9.562;2024-03-02T13:39:06;5.30;;;1.50;;
3415;SDS011;1721;51.238;9.562;2024-03-02T13:41:34;2.90;;;0.90;;
3415;SDS011;1721;51.238;9.562;2024-03-02T13:44:00;3.20;;;1.00;;
3415;SDS011;1721;51.238;9.562;2024-03-02T13:46:26;5.05;;;0.85;;
3415;SDS011;1721;51.238;9.562;2024-03-02T13:48:52;4.00;;;0.90;;
3415;SDS011;1721;51.238;9.562;2024-03-02T13:51:19;3.05;;;1.00;;
3415;SDS011;1721;51.238;9.562;2024-03-02T13:53:44;5.27;;;1.00;;
3415;SDS011;1721;51.238;9.562;2024-03-02T13:56:10;2.87;;;0.90;;
3415;SDS011;1721;51.238;9.562;2024-03-02T13:58:35;5.70;;;1.07;;
3415;SDS011;1721;51.238;9.562;2024-03-02T14:01:01;2.97;;;0.80;;
3415;SDS011;1721;51.238;9.562;2024-03-02T14:03:29;4.82;;;1.75;;
3415;SDS011;1721;51.238;9.562;2024-03-02T14:05:55;3.90;;;1.50;;
3415;SDS011;1721;51.238;9.562;2024-03-02T14:08:21;6.83;;;1.17;;
3415;SDS011;1721;51.238;9.562;2024-03-02T14:10:46;5.23;;;1.90;;
3415;SDS011;1721;51.238;9.562;2024-03-02T14:13:12;7.07;;;2.17;;
3415;SDS011;1721;51.238;9.562;2024-03-02T14:15:37;5.10;;;1.87;;
3415;SDS011;1721;51.238;9.562;2024-03-02T14:18:04;6.35;;;1.80;;
3415;SDS011;1721;51.238;9.562;2024-03-02T14:20:30;4.50;;;1.70;;
3415;SDS011;1721;51.238;9.562;2024-03-02T14:22:57;8.15;;;1.67;;
3415;SDS011;1721;51.238;9.562;2024-03-02T14:25:24;4.78;;;2.03;;
3415;SDS011;1721;51.238;9.562;2024-03-02T14:27:50;4.80;;;2.00;;
3415;SDS011;1721;51.238;9.562;2024-03-02T14:30:16;6.80;;;2.30;;
3415;SDS011;1721;51.238;9.562;2024-03-02T14:32:41;11.77;;;2.23;;
3415;SDS011;1721;51.238;9.562;2024-03-02T14:35:07;5.80;;;2.30;;
3415;SDS011;1721;51.238;9.562;2024-03-02T14:37:35;6.63;;;2.30;;
3415;SDS011;1721;51.238;9.562;2024-03-02T14:40:01;6.28;;;2.22;;
3415;SDS011;1721;51.238;9.562;2024-03-02T14:42:30;8.40;;;2.30;;
3415;SDS011;1721;51.238;9.562;2024-03-02T14:44:56;9.63;;;2.55;;
3415;SDS011;1721;51.238;9.562;2024-03-02T14:47:22;7.37;;;1.80;;
3415;SDS011;1721;51.238;9.562;2024-03-02T14:49:47;13.80;;;2.70;;
3415;SDS011;1721;51.238;9.562;2024-03-02T14:52:13;7.63;;;2.20;;
3415;SDS011;1721;51.238;9.562;2024-03-02T14:54:39;8.37;;;2.17;;
3415;SDS011;1721;51.238;9.562;2024-03-02T14:57:04;13.50;;;2.10;;
3415;SDS011;1721;51.238;9.562;2024-03-02T14:59:30;7.83;;;2.53;;
3415;SDS011;1721;51.238;9.562;2024-03-02T15:01:56;9.37;;;2.90;;
3415;SDS011;1721;51.238;9.562;2024-03-02T15:04:22;8.23;;;2.90;;
3415;SDS011;1721;51.238;9.562;2024-03-02T15:06:48;7.05;;;2.55;;
3415;SDS011;1721;51.238;9.562;2024-03-02T15:09:13;8.30;;;2.47;;
3415;SDS011;1721;51.238;9.562;2024-03-02T15:11:43;7.55;;;2.10;;
3415;SDS011;1721;51.238;9.562;2024-03-02T15:14:09;6.82;;;2.70;;